sensor_id;sensor_type;location;lat;lon;timestamp;P1;durP1;ratioP1;P2;durP2;ratioP2
41815;SDS011;27814;53.452;-6.180;2022-11-24T00:01:17;10.48;;;1.95;;
41815;SDS011;27814;53.452;-6.180;2022-11-24T00:03:50;9.83;;;1.70;;
41815;SDS011;27814;53.452;-6.180;2022-11-24T00:06:21;7.68;;;1.38;;
41815;SDS011;27814;53.452;-6.180;2022-11-24T00:08:50;9.07;;;1.83;;
41815;SDS011;27814;53.452;-6.180;2022-11-24T00:11:20;10.77;;;1.85;;
41815;SDS011;27814;53.452;-6.180;2022-11-24T00:13:50;7.43;;;1.75;;
41815;SDS011;27814;53.452;-6.180;2022-11-24T00:16:18;9.00;;;1.63;;
41815;SDS011;27814;53.452;-6.180;2022-11-24T00:18:49;9.50;;;1.40;;
41815;SDS011;27814;53.452;-6.180;2022-11-24T00:21:20;9.75;;;1.80;;
41815;SDS011;27814;53.452;-6.180;2022-11-24T00:23:49;11.88;;;2.42;;
41815;SDS011;27814;53.452;-6.180;2022-11-24T00:26:19;9.27;;;1.73;;
41815;SDS011;27814;53.452;-6.180;2022-11-24T00:28:49;10.07;;;1.75;;
41815;SDS011;27814;53.452;-6.180;2022-11-24T00:31:18;7.83;;;1.70;;
41815;SDS011;27814;53.452;-6.180;2022-11-24T00:33:48;11.05;;;2.10;;
41815;SDS011;27814;53.452;-6.180;2022-11-24T00:36:20;13.30;;;2.17;;
41815;SDS011;27814;53.452;-6.180;2022-11-24T00:38:51;10.57;;;1.83;;
41815;SDS011;27814;53.452;-6.180;2022-11-24T00:41:21;6.63;;;1.77;;
41815;SDS011;27814;53.452;-6.180;2022-11-24T00:43:50;12.82;;;2.13;;
41815;SDS011;27814;53.452;-6.180;2022-11-24T00:46:19;10.25;;;1.95;;
41815;SDS011;27814;53.452;-6.180;2022-11-24T00:48:48;11.52;;;2.05;;
41815;SDS011;27814;53.452;-6.180;2022-11-24T00:51:17;12.65;;;2.10;;
41815;SDS011;27814;53.452;-6.180;2022-11-24T00:53:48;11.02;;;1.83;;
41815;SDS011;27814;53.452;-6.180;2022-11-24T00:56:16;11.73;;;2.05;;
41815;SDS011;27814;53.452;-6.180;2022-11-24T00:58:44;13.60;;;1.90;;
41815;SDS011;27814;53.452;-6.180;2022-11-24T01:01:13;10.63;;;1.77;;
41815;SDS011;27814;53.452;-6.180;2022-11-24T01:03:43;9.35;;;1.77;;
41815;SDS011;27814;53.452;-6.180;2022-11-24T01:06:13;12.77;;;1.98;;
41815;SDS011;27814;53.452;-6.180;2022-11-24T01:08:44;12.95;;;2.70;;
41815;SDS011;27814;53.452;-6.180;2022-11-24T01:11:14;12.13;;;2.30;;
41815;SDS011;27814;53.452;-6.180;2022-11-24T01:13:45;11.93;;;2.13;;
41815;SDS011;27814;53.452;-6.180;2022-11-24T01:16:15;13.80;;;2.05;;
41815;SDS011;27814;53.452;-6.180;2022-11-24T01:18:44;15.55;;;2.45;;
41815;SDS011;27814;53.452;-6.180;2022-11-24T01:21:13;12.90;;;2.33;;
41815;SDS011;27814;53.452;-6.180;2022-11-24T01:23:42;12.18;;;2.08;;
41815;SDS011;27814;53.452;-6.180;2022-11-24T01:26:14;9.55;;;1.88;;
41815;SDS011;27814;53.452;-6.180;2022-11-24T01:28:44;14.38;;;2.58;;
41815;SDS011;27814;53.452;-6.180;2022-11-24T01:31:13;11.18;;;2.03;;
41815;SDS011;27814;53.452;-6.180;2022-11-24T01:33:42;11.77;;;1.90;;
41815;SDS011;27814;53.452;-6.180;2022-11-24T01:36:11;11.13;;;2.75;;
41815;SDS011;27814;53.452;-6.180;2022-11-24T01:38:39;12.68;;;2.42;;
41815;SDS011;27814;53.452;-6.180;2022-11-24T01:41:11;10.05;;;1.83;;
41815;SDS011;27814;53.452;-6.180;2022-11-24T01:43:40;10.93;;;2.20;;
41815;SDS011;27814;53.452;-6.180;2022-11-24T01:46:11;11.85;;;1.73;;
41815;SDS011;27814;53.452;-6.180;2022-11-24T01:48:47;12.32;;;2.15;;
41815;SDS011;27814;53.452;-6.180;2022-11-24T01:51:22;9.98;;;1.63;;
41815;SDS011;27814;53.452;-6.180;2022-11-24T01:53:54;11.07;;;2.10;;
41815;SDS011;27814;53.452;-6.180;2022-11-24T01:56:28;12.10;;;1.92;;
41815;SDS011;27814;53.452;-6.180;2022-11-24T01:58:58;13.95;;;2.20;;
41815;SDS011;27814;53.452;-6.180;2022-11-24T02:01:28;12.15;;;2.22;;
41815;SDS011;27814;53.452;-6.180;2022-11-24T02:03:57;10.60;;;2.10;;
41815;SDS011;27814;53.452;-6.180;2022-11-24T02:06:28;9.82;;;1.85;;
41815;SDS011;27814;53.452;-6.180;2022-11-24T02:08:59;11.53;;;2.20;;
41815;SDS011;27814;53.452;-6.180;2022-11-24T02:11:34;11.60;;;1.90;;
41815;SDS011;27814;53.452;-6.180;2022-11-24T02:14:04;12.85;;;2.33;;
41815;SDS011;27814;53.452;-6.180;2022-11-24T02:16:34;10.15;;;2.10;;
41815;SDS011;27814;53.452;-6.180;2022-11-24T02:19:04;13.75;;;2.17;;
41815;SDS011;27814;53.452;-6.180;2022-11-24T02:21:40;16.33;;;2.40;;
41815;SDS011;27814;53.452;-6.180;2022-11-24T02:24:10;11.27;;;1.85;;
41815;SDS011;27814;53.452;-6.180;2022-11-24T02:26:46;14.68;;;2.50;;
41815;SDS011;27814;53.452;-6.180;2022-11-24T02:29:17;10.80;;;2.10;;
41815;SDS011;27814;53.452;-6.180;2022-11-24T02:31:47;17.83;;;2.17;;
41815;SDS011;27814;53.452;-6.180;2022-11-24T02:34:18;11.43;;;2.08;;
41815;SDS011;27814;53.452;-6.180;2022-11-24T02:36:46;9.88;;;2.00;;
41815;SDS011;27814;53.452;-6.180;2022-11-24T02:39:15;15.07;;;2.20;;
41815;SDS011;27814;53.452;-6.180;2022-11-24T02:41:45;12.05;;;1.92;;
41815;SDS011;27814;53.452;-6.180;2022-11-24T02:44:17;15.90;;;2.75;;
41815;SDS011;27814;53.452;-6.180;2022-11-24T02:46:47;12.88;;;2.70;;
41815;SDS011;27814;53.452;-6.180;2022-11-24T02:49:15;13.65;;;2.22;;
41815;SDS011;27814;53.452;-6.180;2022-11-24T02:51:43;9.43;;;1.80;;
41815;SDS011;27814;53.452;-6.180;2022-11-24T02:54:11;10.70;;;2.28;;
41815;SDS011;27814;53.452;-6.180;2022-11-24T02:56:40;11.63;;;2.10;;
41815;SDS011;27814;53.452;-6.180;2022-11-24T02:59:09;13.50;;;2.50;;
41815;SDS011;27814;53.452;-6.180;2022-11-24T03:01:37;9.30;;;1.98;;
41815;SDS011;27814;53.452;-6.180;2022-11-24T03:04:06;9.25;;;2.15;;
41815;SDS011;27814;53.452;-6.180;2022-11-24T03:06:34;14.10;;;2.77;;
41815;SDS011;27814;53.452;-6.180;2022-11-24T03:09:03;10.30;;;1.95;;
41815;SDS011;27814;53.452;-6.180;2022-11-24T03:11:31;13.43;;;1.70;;
41815;SDS011;27814;53.452;-6.180;2022-11-24T03:13:59;13.77;;;2.00;;
41815;SDS011;27814;53.452;-6.180;2022-11-24T03:16:29;13.38;;;2.03;;
41815;SDS011;27814;53.452;-6.180;2022-11-24T03:18:58;12.23;;;2.15;;
41815;SDS011;27814;53.452;-6.180;2022-11-24T03:21:27;13.10;;;2.03;;
41815;SDS011;27814;53.452;-6.180;2022-11-24T03:23:55;8.30;;;1.92;;
41815;SDS011;27814;53.452;-6.180;2022-11-24T03:26:23;12.93;;;2.10;;
41815;SDS011;27814;53.452;-6.180;2022-11-24T03:28:52;8.15;;;1.65;;
41815;SDS011;27814;53.452;-6.180;2022-11-24T03:31:22;11.10;;;2.03;;
41815;SDS011;27814;53.452;-6.180;2022-11-24T03:33:52;10.05;;;2.05;;
41815;SDS011;27814;53.452;-6.180;2022-11-24T03:36:20;12.20;;;2.78;;
41815;SDS011;27814;53.452;-6.180;2022-11-24T03:38:48;12.60;;;1.95;;
41815;SDS011;27814;53.452;-6.180;2022-11-24T03:41:17;12.80;;;2.22;;
41815;SDS011;27814;53.452;-6.180;2022-11-24T03:43:45;13.68;;;2.28;;
41815;SDS011;27814;53.452;-6.180;2022-11-24T03:46:13;7.68;;;1.90;;
41815;SDS011;27814;53.452;-6.180;2022-11-24T03:48:41;16.75;;;2.70;;
41815;SDS011;27814;53.452;-6.180;2022-11-24T03:51:11;12.15;;;2.00;;
41815;SDS011;27814;53.452;-6.180;2022-11-24T03:53:40;12.68;;;1.90;;
41815;SDS011;27814;53.452;-6.180;2022-11-24T03:56:08;11.55;;;1.90;;
41815;SDS011;27814;53.452;-6.180;2022-11-24T03:58:36;19.98;;;2.75;;
41815;SDS011;27814;53.452;-6.180;2022-11-24T04:01:04;12.50;;;2.33;;
41815;SDS011;27814;53.452;-6.180;2022-11-24T04:03:33;17.27;;;2.83;;
41815;SDS011;27814;53.452;-6.180;2022-11-24T04:06:01;13.30;;;2.45;;
41815;SDS011;27814;53.452;-6.180;2022-11-24T04:08:31;15.27;;;2.38;;
41815;SDS011;27814;53.452;-6.180;2022-11-24T04:10:59;18.02;;;2.95;;
41815;SDS011;27814;53.452;-6.180;2022-11-24T04:13:28;12.35;;;2.72;;
41815;SDS011;27814;53.452;-6.180;2022-11-24T04:15:55;21.55;;;2.90;;
41815;SDS011;27814;53.452;-6.180;2022-11-24T04:18:23;16.83;;;2.80;;
41815;SDS011;27814;53.452;-6.180;2022-11-24T04:20:52;19.70;;;2.90;;
41815;SDS011;27814;53.452;-6.180;2022-11-24T04:23:20;18.10;;;2.90;;
41815;SDS011;27814;53.452;-6.180;2022-11-24T04:25:50;17.73;;;2.90;;
41815;SDS011;27814;53.452;-6.180;2022-11-24T04:28:18;17.58;;;2.70;;
41815;SDS011;27814;53.452;-6.180;2022-11-24T04:30:47;22.50;;;3.58;;
41815;SDS011;27814;53.452;-6.180;2022-11-24T04:33:15;18.90;;;3.13;;
41815;SDS011;27814;53.452;-6.180;2022-11-24T04:35:43;17.70;;;2.70;;
41815;SDS011;27814;53.452;-6.180;2022-11-24T04:38:11;17.33;;;2.77;;
41815;SDS011;27814;53.452;-6.180;2022-11-24T04:41:02;21.20;;;2.85;;
41815;SDS011;27814;53.452;-6.180;2022-11-24T04:43:30;18.48;;;3.60;;
41815;SDS011;27814;53.452;-6.180;2022-11-24T04:46:07;18.42;;;3.17;;
41815;SDS011;27814;53.452;-6.180;2022-11-24T04:48:37;26.02;;;2.88;;
41815;SDS011;27814;53.452;-6.180;2022-11-24T04:51:05;20.67;;;2.83;;
41815;SDS011;27814;53.452;-6.180;2022-11-24T04:53:34;14.55;;;2.38;;
41815;SDS011;27814;53.452;-6.180;2022-11-24T04:56:04;16.13;;;2.20;;
41815;SDS011;27814;53.452;-6.180;2022-11-24T04:58:33;15.07;;;3.08;;
41815;SDS011;27814;53.452;-6.180;2022-11-24T05:01:05;16.67;;;3.17;;
41815;SDS011;27814;53.452;-6.180;2022-11-24T05:03:34;19.53;;;3.67;;
41815;SDS011;27814;53.452;-6.180;2022-11-24T05:06:03;18.45;;;3.05;;
41815;SDS011;27814;53.452;-6.180;2022-11-24T05:08:32;16.00;;;3.37;;
41815;SDS011;27814;53.452;-6.180;2022-11-24T05:11:02;17.33;;;2.63;;
41815;SDS011;27814;53.452;-6.180;2022-11-24T05:13:31;22.33;;;3.30;;
41815;SDS011;27814;53.452;-6.180;2022-11-24T05:16:00;18.17;;;2.72;;
41815;SDS011;27814;53.452;-6.180;2022-11-24T05:18:28;17.83;;;3.00;;
41815;SDS011;27814;53.452;-6.180;2022-11-24T05:20:57;21.90;;;2.72;;
41815;SDS011;27814;53.452;-6.180;2022-11-24T05:23:25;21.83;;;3.38;;
41815;SDS011;27814;53.452;-6.180;2022-11-24T05:25:57;18.67;;;3.50;;
41815;SDS011;27814;53.452;-6.180;2022-11-24T05:28:27;14.70;;;2.92;;
41815;SDS011;27814;53.452;-6.180;2022-11-24T05:30:57;21.92;;;3.50;;
41815;SDS011;27814;53.452;-6.180;2022-11-24T05:33:27;18.98;;;3.33;;
41815;SDS011;27814;53.452;-6.180;2022-11-24T05:35:59;15.88;;;3.65;;
41815;SDS011;27814;53.452;-6.180;2022-11-24T05:38:28;14.25;;;2.75;;
41815;SDS011;27814;53.452;-6.180;2022-11-24T05:40:58;18.92;;;3.00;;
41815;SDS011;27814;53.452;-6.180;2022-11-24T05:43:29;23.00;;;3.33;;
41815;SDS011;27814;53.452;-6.180;2022-11-24T05:45:58;22.30;;;3.72;;
41815;SDS011;27814;53.452;-6.180;2022-11-24T05:48:26;19.52;;;4.05;;
41815;SDS011;27814;53.452;-6.180;2022-11-24T05:50:55;24.92;;;4.03;;
41815;SDS011;27814;53.452;-6.180;2022-11-24T05:53:24;19.60;;;3.47;;
41815;SDS011;27814;53.452;-6.180;2022-11-24T05:55:52;21.42;;;3.10;;
41815;SDS011;27814;53.452;-6.180;2022-11-24T05:58:21;25.77;;;3.63;;
41815;SDS011;27814;53.452;-6.180;2022-11-24T06:00:50;20.45;;;3.40;;
41815;SDS011;27814;53.452;-6.180;2022-11-24T06:03:19;21.67;;;4.70;;
41815;SDS011;27814;53.452;-6.180;2022-11-24T06:05:47;19.90;;;3.53;;
41815;SDS011;27814;53.452;-6.180;2022-11-24T06:08:15;23.83;;;3.90;;
41815;SDS011;27814;53.452;-6.180;2022-11-24T06:10:43;22.63;;;3.35;;
41815;SDS011;27814;53.452;-6.180;2022-11-24T06:13:12;21.90;;;4.13;;
41815;SDS011;27814;53.452;-6.180;2022-11-24T06:15:40;20.45;;;3.42;;
41815;SDS011;27814;53.452;-6.180;2022-11-24T06:18:10;24.00;;;3.70;;
41815;SDS011;27814;53.452;-6.180;2022-11-24T06:20:38;23.07;;;3.63;;
41815;SDS011;27814;53.452;-6.180;2022-11-24T06:23:11;26.42;;;4.07;;
41815;SDS011;27814;53.452;-6.180;2022-11-24T06:25:39;26.88;;;3.67;;
41815;SDS011;27814;53.452;-6.180;2022-11-24T06:28:14;23.50;;;3.28;;
41815;SDS011;27814;53.452;-6.180;2022-11-24T06:30:42;22.95;;;4.28;;
41815;SDS011;27814;53.452;-6.180;2022-11-24T06:33:12;23.35;;;4.10;;
41815;SDS011;27814;53.452;-6.180;2022-11-24T06:35:40;28.83;;;4.18;;
41815;SDS011;27814;53.452;-6.180;2022-11-24T06:38:09;29.85;;;4.35;;
41815;SDS011;27814;53.452;-6.180;2022-11-24T06:40:37;27.80;;;4.18;;
41815;SDS011;27814;53.452;-6.180;2022-11-24T06:43:05;26.60;;;4.40;;
41815;SDS011;27814;53.452;-6.180;2022-11-24T06:45:33;29.65;;;4.35;;
41815;SDS011;27814;53.452;-6.180;2022-11-24T06:48:02;17.15;;;3.20;;
41815;SDS011;27814;53.452;-6.180;2022-11-24T06:50:32;27.30;;;3.75;;
41815;SDS011;27814;53.452;-6.180;2022-11-24T06:53:00;26.25;;;3.55;;
41815;SDS011;27814;53.452;-6.180;2022-11-24T06:55:29;22.92;;;4.05;;
41815;SDS011;27814;53.452;-6.180;2022-11-24T06:57:57;25.73;;;4.47;;
41815;SDS011;27814;53.452;-6.180;2022-11-24T07:00:25;24.75;;;3.83;;
41815;SDS011;27814;53.452;-6.180;2022-11-24T07:02:57;20.97;;;3.90;;
41815;SDS011;27814;53.452;-6.180;2022-11-24T07:05:26;20.45;;;3.38;;
41815;SDS011;27814;53.452;-6.180;2022-11-24T07:07:56;26.75;;;3.92;;
41815;SDS011;27814;53.452;-6.180;2022-11-24T07:10:25;21.05;;;3.28;;
41815;SDS011;27814;53.452;-6.180;2022-11-24T07:12:54;20.42;;;3.30;;
41815;SDS011;27814;53.452;-6.180;2022-11-24T07:15:22;22.83;;;3.67;;
41815;SDS011;27814;53.452;-6.180;2022-11-24T07:17:50;22.27;;;3.75;;
41815;SDS011;27814;53.452;-6.180;2022-11-24T07:20:19;19.48;;;2.92;;
41815;SDS011;27814;53.452;-6.180;2022-11-24T07:22:47;18.90;;;2.70;;
41815;SDS011;27814;53.452;-6.180;2022-11-24T07:25:17;19.95;;;2.92;;
41815;SDS011;27814;53.452;-6.180;2022-11-24T07:27:45;20.25;;;3.38;;
41815;SDS011;27814;53.452;-6.180;2022-11-24T07:30:13;27.33;;;3.83;;
41815;SDS011;27814;53.452;-6.180;2022-11-24T07:32:42;23.92;;;4.03;;
41815;SDS011;27814;53.452;-6.180;2022-11-24T07:35:10;31.67;;;4.27;;
41815;SDS011;27814;53.452;-6.180;2022-11-24T07:37:38;21.90;;;3.75;;
41815;SDS011;27814;53.452;-6.180;2022-11-24T07:40:07;27.77;;;4.15;;
41815;SDS011;27814;53.452;-6.180;2022-11-24T07:42:38;24.58;;;4.60;;
41815;SDS011;27814;53.452;-6.180;2022-11-24T07:45:07;29.63;;;3.72;;
41815;SDS011;27814;53.452;-6.180;2022-11-24T07:47:37;24.88;;;3.90;;
41815;SDS011;27814;53.452;-6.180;2022-11-24T07:50:06;19.75;;;3.80;;
41815;SDS011;27814;53.452;-6.180;2022-11-24T07:52:36;16.80;;;3.20;;
41815;SDS011;27814;53.452;-6.180;2022-11-24T07:55:05;27.85;;;4.53;;
41815;SDS011;27814;53.452;-6.180;2022-11-24T07:57:34;28.48;;;4.28;;
41815;SDS011;27814;53.452;-6.180;2022-11-24T08:00:04;20.27;;;3.57;;
41815;SDS011;27814;53.452;-6.180;2022-11-24T08:02:33;18.42;;;3.60;;
41815;SDS011;27814;53.452;-6.180;2022-11-24T08:05:02;22.63;;;3.80;;
41815;SDS011;27814;53.452;-6.180;2022-11-24T08:07:31;21.77;;;3.43;;
41815;SDS011;27814;53.452;-6.180;2022-11-24T08:09:59;25.10;;;3.60;;
41815;SDS011;27814;53.452;-6.180;2022-11-24T08:12:28;17.63;;;3.38;;
41815;SDS011;27814;53.452;-6.180;2022-11-24T08:14:57;17.90;;;2.85;;
41815;SDS011;27814;53.452;-6.180;2022-11-24T08:17:29;18.40;;;3.08;;
41815;SDS011;27814;53.452;-6.180;2022-11-24T08:19:57;21.27;;;3.72;;
41815;SDS011;27814;53.452;-6.180;2022-11-24T08:22:25;19.67;;;3.63;;
41815;SDS011;27814;53.452;-6.180;2022-11-24T08:24:53;19.30;;;3.08;;
41815;SDS011;27814;53.452;-6.180;2022-11-24T08:27:22;21.50;;;3.38;;
41815;SDS011;27814;53.452;-6.180;2022-11-24T08:29:50;19.23;;;3.67;;
41815;SDS011;27814;53.452;-6.180;2022-11-24T08:32:18;20.55;;;3.40;;
41815;SDS011;27814;53.452;-6.180;2022-11-24T08:34:49;19.02;;;3.13;;
41815;SDS011;27814;53.452;-6.180;2022-11-24T08:37:28;18.30;;;3.03;;
41815;SDS011;27814;53.452;-6.180;2022-11-24T08:39:57;19.65;;;3.25;;
41815;SDS011;27814;53.452;-6.180;2022-11-24T08:42:25;17.10;;;3.15;;
41815;SDS011;27814;53.452;-6.180;2022-11-24T08:44:53;17.83;;;3.20;;
41815;SDS011;27814;53.452;-6.180;2022-11-24T08:47:24;16.87;;;3.07;;
41815;SDS011;27814;53.452;-6.180;2022-11-24T08:49:54;17.58;;;3.33;;
41815;SDS011;27814;53.452;-6.180;2022-11-24T08:52:22;16.00;;;3.50;;
41815;SDS011;27814;53.452;-6.180;2022-11-24T08:54:50;20.55;;;3.05;;
41815;SDS011;27814;53.452;-6.180;2022-11-24T08:57:19;16.25;;;2.63;;
41815;SDS011;27814;53.452;-6.180;2022-11-24T08:59:48;15.23;;;2.77;;
41815;SDS011;27814;53.452;-6.180;2022-11-24T09:02:16;12.30;;;2.78;;
41815;SDS011;27814;53.452;-6.180;2022-11-24T09:04:44;13.20;;;2.45;;
41815;SDS011;27814;53.452;-6.180;2022-11-24T09:07:14;11.93;;;4.07;;
41815;SDS011;27814;53.452;-6.180;2022-11-24T09:09:43;9.77;;;1.65;;
41815;SDS011;27814;53.452;-6.180;2022-11-24T09:12:11;6.93;;;1.02;;
41815;SDS011;27814;53.452;-6.180;2022-11-24T09:14:40;6.20;;;1.10;;
41815;SDS011;27814;53.452;-6.180;2022-11-24T09:17:08;4.78;;;0.70;;
41815;SDS011;27814;53.452;-6.180;2022-11-24T09:19:36;3.20;;;0.50;;
41815;SDS011;27814;53.452;-6.180;2022-11-24T09:22:05;2.38;;;0.55;;
41815;SDS011;27814;53.452;-6.180;2022-11-24T09:24:35;1.90;;;0.40;;
41815;SDS011;27814;53.452;-6.180;2022-11-24T09:27:03;1.00;;;0.47;;
41815;SDS011;27814;53.452;-6.180;2022-11-24T09:29:31;2.10;;;0.30;;
41815;SDS011;27814;53.452;-6.180;2022-11-24T09:32:00;2.50;;;0.40;;
41815;SDS011;27814;53.452;-6.180;2022-11-24T09:34:32;2.75;;;0.43;;
41815;SDS011;27814;53.452;-6.180;2022-11-24T09:37:00;4.33;;;0.67;;
41815;SDS011;27814;53.452;-6.180;2022-11-24T09:39:29;2.30;;;0.40;;
41815;SDS011;27814;53.452;-6.180;2022-11-24T09:42:07;1.65;;;0.32;;
41815;SDS011;27814;53.452;-6.180;2022-11-24T09:44:48;1.98;;;0.40;;
41815;SDS011;27814;53.452;-6.180;2022-11-24T09:47:38;2.58;;;0.55;;
41815;SDS011;27814;53.452;-6.180;2022-11-24T09:50:26;4.10;;;0.77;;
41815;SDS011;27814;53.452;-6.180;2022-11-24T09:53:01;2.47;;;0.40;;
41815;SDS011;27814;53.452;-6.180;2022-11-24T09:55:39;4.57;;;0.63;;
41815;SDS011;27814;53.452;-6.180;2022-11-24T09:58:13;4.07;;;0.70;;
41815;SDS011;27814;53.452;-6.180;2022-11-24T10:00:47;3.70;;;0.77;;
41815;SDS011;27814;53.452;-6.180;2022-11-24T10:03:22;4.30;;;0.70;;
41815;SDS011;27814;53.452;-6.180;2022-11-24T10:05:56;6.43;;;1.10;;
41815;SDS011;27814;53.452;-6.180;2022-11-24T10:08:32;4.38;;;0.95;;
41815;SDS011;27814;53.452;-6.180;2022-11-24T10:11:11;7.40;;;1.40;;
41815;SDS011;27814;53.452;-6.180;2022-11-24T10:14:00;13.30;;;1.88;;
41815;SDS011;27814;53.452;-6.180;2022-11-24T10:16:42;7.05;;;1.70;;
41815;SDS011;27814;53.452;-6.180;2022-11-24T10:19:20;8.45;;;1.40;;
41815;SDS011;27814;53.452;-6.180;2022-11-24T10:22:06;12.85;;;1.90;;
41815;SDS011;27814;53.452;-6.180;2022-11-24T10:24:58;9.82;;;1.75;;
41815;SDS011;27814;53.452;-6.180;2022-11-24T10:27:36;13.35;;;1.83;;
41815;SDS011;27814;53.452;-6.180;2022-11-24T10:30:14;10.63;;;2.03;;
41815;SDS011;27814;53.452;-6.180;2022-11-24T10:32:45;11.73;;;2.00;;
41815;SDS011;27814;53.452;-6.180;2022-11-24T10:35:18;11.50;;;1.88;;
41815;SDS011;27814;53.452;-6.180;2022-11-24T10:37:50;14.50;;;2.45;;
41815;SDS011;27814;53.452;-6.180;2022-11-24T10:40:25;13.00;;;1.92;;
41815;SDS011;27814;53.452;-6.180;2022-11-24T10:43:20;14.05;;;2.67;;
41815;SDS011;27814;53.452;-6.180;2022-11-24T10:45:50;17.38;;;2.40;;
41815;SDS011;27814;53.452;-6.180;2022-11-24T10:48:18;13.15;;;2.15;;
41815;SDS011;27814;53.452;-6.180;2022-11-24T10:50:51;12.70;;;1.92;;
41815;SDS011;27814;53.452;-6.180;2022-11-24T10:53:21;12.48;;;2.00;;
41815;SDS011;27814;53.452;-6.180;2022-11-24T10:55:56;11.93;;;2.38;;
41815;SDS011;27814;53.452;-6.180;2022-11-24T10:58:26;15.82;;;3.13;;
41815;SDS011;27814;53.452;-6.180;2022-11-24T11:03:57;16.17;;;2.97;;
41815;SDS011;27814;53.452;-6.180;2022-11-24T11:06:27;12.00;;;2.47;;
41815;SDS011;27814;53.452;-6.180;2022-11-24T11:09:10;13.32;;;2.78;;
41815;SDS011;27814;53.452;-6.180;2022-11-24T11:11:45;12.65;;;2.45;;
41815;SDS011;27814;53.452;-6.180;2022-11-24T11:14:27;14.40;;;2.38;;
41815;SDS011;27814;53.452;-6.180;2022-11-24T11:16:56;14.70;;;2.30;;
41815;SDS011;27814;53.452;-6.180;2022-11-24T11:19:33;14.23;;;2.60;;
41815;SDS011;27814;53.452;-6.180;2022-11-24T11:22:24;14.55;;;2.35;;
41815;SDS011;27814;53.452;-6.180;2022-11-24T11:25:03;10.77;;;2.30;;
41815;SDS011;27814;53.452;-6.180;2022-11-24T11:27:45;11.57;;;2.88;;
41815;SDS011;27814;53.452;-6.180;2022-11-24T11:30:22;19.00;;;3.03;;
41815;SDS011;27814;53.452;-6.180;2022-11-24T11:33:17;17.45;;;2.80;;
41815;SDS011;27814;53.452;-6.180;2022-11-24T11:36:10;13.50;;;2.25;;
41815;SDS011;27814;53.452;-6.180;2022-11-24T11:38:40;14.23;;;2.08;;
41815;SDS011;27814;53.452;-6.180;2022-11-24T11:41:12;14.00;;;1.90;;
41815;SDS011;27814;53.452;-6.180;2022-11-24T11:43:47;21.08;;;6.85;;
41815;SDS011;27814;53.452;-6.180;2022-11-24T11:46:21;10.90;;;2.75;;
41815;SDS011;27814;53.452;-6.180;2022-11-24T11:48:53;18.25;;;3.17;;
41815;SDS011;27814;53.452;-6.180;2022-11-24T11:51:28;14.43;;;2.97;;
41815;SDS011;27814;53.452;-6.180;2022-11-24T11:54:08;13.45;;;2.25;;
41815;SDS011;27814;53.452;-6.180;2022-11-24T11:56:44;12.43;;;2.55;;
41815;SDS011;27814;53.452;-6.180;2022-11-24T12:02:17;12.43;;;2.10;;
41815;SDS011;27814;53.452;-6.180;2022-11-24T12:05:23;9.10;;;2.15;;
41815;SDS011;27814;53.452;-6.180;2022-11-24T12:08:10;17.50;;;2.17;;
41815;SDS011;27814;53.452;-6.180;2022-11-24T12:10:48;16.55;;;2.38;;
41815;SDS011;27814;53.452;-6.180;2022-11-24T12:16:32;16.20;;;2.60;;
41815;SDS011;27814;53.452;-6.180;2022-11-24T12:19:12;14.73;;;2.42;;
41815;SDS011;27814;53.452;-6.180;2022-11-24T12:21:52;10.80;;;1.85;;
41815;SDS011;27814;53.452;-6.180;2022-11-24T12:24:32;14.93;;;3.13;;
41815;SDS011;27814;53.452;-6.180;2022-11-24T12:27:09;17.47;;;2.43;;
41815;SDS011;27814;53.452;-6.180;2022-11-24T12:32:47;19.83;;;2.60;;
41815;SDS011;27814;53.452;-6.180;2022-11-24T12:35:34;13.75;;;2.50;;
41815;SDS011;27814;53.452;-6.180;2022-11-24T12:38:09;13.70;;;2.30;;
41815;SDS011;27814;53.452;-6.180;2022-11-24T12:44:04;13.68;;;2.75;;
41815;SDS011;27814;53.452;-6.180;2022-11-24T12:46:45;14.40;;;2.95;;
41815;SDS011;27814;53.452;-6.180;2022-11-24T12:49:23;11.80;;;2.42;;
41815;SDS011;27814;53.452;-6.180;2022-11-24T12:52:02;18.75;;;3.20;;
41815;SDS011;27814;53.452;-6.180;2022-11-24T12:54:35;17.33;;;3.15;;
41815;SDS011;27814;53.452;-6.180;2022-11-24T12:57:08;16.02;;;2.63;;
41815;SDS011;27814;53.452;-6.180;2022-11-24T12:59:45;16.77;;;2.97;;
41815;SDS011;27814;53.452;-6.180;2022-11-24T13:02:23;17.60;;;2.90;;
41815;SDS011;27814;53.452;-6.180;2022-11-24T13:05:03;12.43;;;2.27;;
41815;SDS011;27814;53.452;-6.180;2022-11-24T13:07:41;16.08;;;2.78;;
41815;SDS011;27814;53.452;-6.180;2022-11-24T13:13:26;17.35;;;2.45;;
41815;SDS011;27814;53.452;-6.180;2022-11-24T13:16:15;12.38;;;2.58;;
41815;SDS011;27814;53.452;-6.180;2022-11-24T13:19:07;16.35;;;2.83;;
41815;SDS011;27814;53.452;-6.180;2022-11-24T13:21:59;13.57;;;2.50;;
41815;SDS011;27814;53.452;-6.180;2022-11-24T13:24:29;14.07;;;3.15;;
41815;SDS011;27814;53.452;-6.180;2022-11-24T13:27:17;16.88;;;3.20;;
41815;SDS011;27814;53.452;-6.180;2022-11-24T13:33:27;13.47;;;2.33;;
41815;SDS011;27814;53.452;-6.180;2022-11-24T13:38:59;16.50;;;2.85;;
41815;SDS011;27814;53.452;-6.180;2022-11-24T13:44:58;17.27;;;2.88;;
41815;SDS011;27814;53.452;-6.180;2022-11-24T13:47:31;13.65;;;2.60;;
41815;SDS011;27814;53.452;-6.180;2022-11-24T13:50:06;20.15;;;3.03;;
41815;SDS011;27814;53.452;-6.180;2022-11-24T13:52:49;14.50;;;2.47;;
41815;SDS011;27814;53.452;-6.180;2022-11-24T13:55:31;15.43;;;2.88;;
41815;SDS011;27814;53.452;-6.180;2022-11-24T13:58:05;16.75;;;3.13;;
41815;SDS011;27814;53.452;-6.180;2022-11-24T14:07:03;17.83;;;6.13;;
41815;SDS011;27814;53.452;-6.180;2022-11-24T14:09:36;21.38;;;6.50;;
41815;SDS011;27814;53.452;-6.180;2022-11-24T14:12:13;12.80;;;3.83;;
41815;SDS011;27814;53.452;-6.180;2022-11-24T14:14:42;15.52;;;3.42;;
41815;SDS011;27814;53.452;-6.180;2022-11-24T14:17:14;14.75;;;2.25;;
41815;SDS011;27814;53.452;-6.180;2022-11-24T14:19:45;11.27;;;3.00;;
41815;SDS011;27814;53.452;-6.180;2022-11-24T14:22:17;9.65;;;1.95;;
41815;SDS011;27814;53.452;-6.180;2022-11-24T14:24:53;8.68;;;2.35;;
41815;SDS011;27814;53.452;-6.180;2022-11-24T14:27:26;8.43;;;2.03;;
41815;SDS011;27814;53.452;-6.180;2022-11-24T14:29:57;12.02;;;2.65;;
41815;SDS011;27814;53.452;-6.180;2022-11-24T14:32:27;11.93;;;2.50;;
41815;SDS011;27814;53.452;-6.180;2022-11-24T14:34:56;13.07;;;2.20;;
41815;SDS011;27814;53.452;-6.180;2022-11-24T14:37:26;15.00;;;2.67;;
41815;SDS011;27814;53.452;-6.180;2022-11-24T14:39:55;14.27;;;2.72;;
41815;SDS011;27814;53.452;-6.180;2022-11-24T14:42:24;17.38;;;3.28;;
41815;SDS011;27814;53.452;-6.180;2022-11-24T14:44:54;11.30;;;2.00;;
41815;SDS011;27814;53.452;-6.180;2022-11-24T14:47:25;12.85;;;2.80;;
41815;SDS011;27814;53.452;-6.180;2022-11-24T14:50:05;11.70;;;2.75;;
41815;SDS011;27814;53.452;-6.180;2022-11-24T14:52:42;11.27;;;2.67;;
41815;SDS011;27814;53.452;-6.180;2022-11-24T14:55:25;16.63;;;3.15;;
41815;SDS011;27814;53.452;-6.180;2022-11-24T14:57:55;15.45;;;3.47;;
41815;SDS011;27814;53.452;-6.180;2022-11-24T15:00:27;15.80;;;2.95;;
41815;SDS011;27814;53.452;-6.180;2022-11-24T15:03:06;15.02;;;2.78;;
41815;SDS011;27814;53.452;-6.180;2022-11-24T15:05:53;13.13;;;2.40;;
41815;SDS011;27814;53.452;-6.180;2022-11-24T15:08:25;17.90;;;3.08;;
41815;SDS011;27814;53.452;-6.180;2022-11-24T15:11:04;16.80;;;3.10;;
41815;SDS011;27814;53.452;-6.180;2022-11-24T15:13:35;19.67;;;2.80;;
41815;SDS011;27814;53.452;-6.180;2022-11-24T15:16:05;14.68;;;3.60;;
41815;SDS011;27814;53.452;-6.180;2022-11-24T15:18:42;13.70;;;2.55;;
41815;SDS011;27814;53.452;-6.180;2022-11-24T15:21:12;20.45;;;3.50;;
41815;SDS011;27814;53.452;-6.180;2022-11-24T15:26:33;18.88;;;3.22;;
41815;SDS011;27814;53.452;-6.180;2022-11-24T15:29:07;15.93;;;2.97;;